sensor_id;sensor_type;location;lat;lon;timestamp;P1;durP1;ratioP1;P2;durP2;ratioP2
52668;SDS011;59898;52.786;6.892;2023-08-06T00:00:30;9.15;;;7.32;;
52668;SDS011;59898;52.786;6.892;2023-08-06T00:03:51;8.73;;;7.30;;
52668;SDS011;59898;52.786;6.892;2023-08-06T00:07:11;8.25;;;7.45;;
52668;SDS011;59898;52.786;6.892;2023-08-06T00:10:32;9.80;;;6.47;;
52668;SDS011;59898;52.786;6.892;2023-08-06T00:13:52;13.95;;;7.07;;
52668;SDS011;59898;52.786;6.892;2023-08-06T00:17:13;8.27;;;7.03;;
52668;SDS011;59898;52.786;6.892;2023-08-06T00:20:34;11.00;;;8.05;;
52668;SDS011;59898;52.786;6.892;2023-08-06T00:23:54;11.00;;;7.30;;
52668;SDS011;59898;52.786;6.892;2023-08-06T00:27:15;8.30;;;6.63;;
52668;SDS011;59898;52.786;6.892;2023-08-06T00:30:35;11.10;;;7.63;;
52668;SDS011;59898;52.786;6.892;2023-08-06T00:33:56;11.60;;;7.15;;
52668;SDS011;59898;52.786;6.892;2023-08-06T00:37:16;9.13;;;6.53;;
52668;SDS011;59898;52.786;6.892;2023-08-06T00:40:37;7.72;;;6.38;;
52668;SDS011;59898;52.786;6.892;2023-08-06T00:43:58;9.65;;;8.30;;
52668;SDS011;59898;52.786;6.892;2023-08-06T00:47:18;10.60;;;8.30;;
52668;SDS011;59898;52.786;6.892;2023-08-06T00:50:39;10.35;;;8.43;;
52668;SDS011;59898;52.786;6.892;2023-08-06T00:54:00;10.52;;;8.60;;
52668;SDS011;59898;52.786;6.892;2023-08-06T00:57:22;12.73;;;8.68;;
52668;SDS011;59898;52.786;6.892;2023-08-06T01:00:46;11.25;;;8.18;;
52668;SDS011;59898;52.786;6.892;2023-08-06T01:04:06;10.27;;;8.82;;
52668;SDS011;59898;52.786;6.892;2023-08-06T01:15:01;12.23;;;8.45;;
52668;SDS011;59898;52.786;6.892;2023-08-06T01:18:28;13.57;;;9.52;;
52668;SDS011;59898;52.786;6.892;2023-08-06T01:21:49;10.27;;;7.82;;
52668;SDS011;59898;52.786;6.892;2023-08-06T01:25:09;13.93;;;9.32;;
52668;SDS011;59898;52.786;6.892;2023-08-06T01:28:37;10.60;;;8.00;;
52668;SDS011;59898;52.786;6.892;2023-08-06T01:32:04;11.45;;;8.80;;
52668;SDS011;59898;52.786;6.892;2023-08-06T01:35:27;11.63;;;9.02;;
52668;SDS011;59898;52.786;6.892;2023-08-06T01:38:51;9.93;;;8.75;;
52668;SDS011;59898;52.786;6.892;2023-08-06T01:45:33;10.00;;;8.70;;
52668;SDS011;59898;52.786;6.892;2023-08-06T01:48:54;10.48;;;9.38;;
52668;SDS011;59898;52.786;6.892;2023-08-06T01:52:14;11.15;;;9.20;;
52668;SDS011;59898;52.786;6.892;2023-08-06T01:55:35;11.02;;;9.82;;
52668;SDS011;59898;52.786;6.892;2023-08-06T01:58:55;11.25;;;9.55;;
52668;SDS011;59898;52.786;6.892;2023-08-06T02:02:16;9.88;;;8.70;;
52668;SDS011;59898;52.786;6.892;2023-08-06T02:05:37;11.02;;;9.55;;
52668;SDS011;59898;52.786;6.892;2023-08-06T02:08:57;12.55;;;9.88;;
52668;SDS011;59898;52.786;6.892;2023-08-06T02:12:18;10.52;;;9.43;;
52668;SDS011;59898;52.786;6.892;2023-08-06T02:15:42;11.43;;;9.07;;
52668;SDS011;59898;52.786;6.892;2023-08-06T02:19:03;10.75;;;8.40;;
52668;SDS011;59898;52.786;6.892;2023-08-06T02:22:24;14.23;;;9.80;;
52668;SDS011;59898;52.786;6.892;2023-08-06T02:25:44;13.65;;;10.88;;
52668;SDS011;59898;52.786;6.892;2023-08-06T02:29:05;10.70;;;9.60;;
52668;SDS011;59898;52.786;6.892;2023-08-06T02:32:31;13.70;;;8.93;;
52668;SDS011;59898;52.786;6.892;2023-08-06T02:35:59;12.40;;;10.13;;
52668;SDS011;59898;52.786;6.892;2023-08-06T02:39:21;12.20;;;9.23;;
52668;SDS011;59898;52.786;6.892;2023-08-06T02:42:41;13.27;;;9.27;;
52668;SDS011;59898;52.786;6.892;2023-08-06T02:46:02;11.30;;;8.70;;
52668;SDS011;59898;52.786;6.892;2023-08-06T02:49:23;11.23;;;9.60;;
52668;SDS011;59898;52.786;6.892;2023-08-06T02:52:43;10.18;;;8.95;;
52668;SDS011;59898;52.786;6.892;2023-08-06T02:56:04;11.18;;;9.50;;
52668;SDS011;59898;52.786;6.892;2023-08-06T02:59:24;13.63;;;10.55;;
52668;SDS011;59898;52.786;6.892;2023-08-06T03:02:45;9.75;;;8.55;;
52668;SDS011;59898;52.786;6.892;2023-08-06T03:06:05;10.25;;;8.75;;
52668;SDS011;59898;52.786;6.892;2023-08-06T03:09:26;13.57;;;9.30;;
52668;SDS011;59898;52.786;6.892;2023-08-06T03:12:47;11.05;;;9.45;;
52668;SDS011;59898;52.786;6.892;2023-08-06T03:16:07;11.70;;;9.07;;
52668;SDS011;59898;52.786;6.892;2023-08-06T03:19:28;10.63;;;9.38;;
52668;SDS011;59898;52.786;6.892;2023-08-06T03:22:49;11.45;;;9.43;;
52668;SDS011;59898;52.786;6.892;2023-08-06T03:26:10;12.18;;;9.35;;
52668;SDS011;59898;52.786;6.892;2023-08-06T03:29:30;13.52;;;10.05;;
52668;SDS011;59898;52.786;6.892;2023-08-06T03:32:51;10.75;;;9.13;;
52668;SDS011;59898;52.786;6.892;2023-08-06T03:36:11;13.35;;;10.70;;
52668;SDS011;59898;52.786;6.892;2023-08-06T03:39:32;11.48;;;9.30;;
52668;SDS011;59898;52.786;6.892;2023-08-06T03:42:52;11.48;;;10.05;;
52668;SDS011;59898;52.786;6.892;2023-08-06T03:46:13;11.45;;;10.13;;
52668;SDS011;59898;52.786;6.892;2023-08-06T03:49:33;15.50;;;10.63;;
52668;SDS011;59898;52.786;6.892;2023-08-06T03:56:19;12.40;;;10.85;;
52668;SDS011;59898;52.786;6.892;2023-08-06T03:59:39;13.88;;;10.45;;
52668;SDS011;59898;52.786;6.892;2023-08-06T04:03:00;12.02;;;10.50;;
52668;SDS011;59898;52.786;6.892;2023-08-06T04:06:21;11.27;;;10.07;;
52668;SDS011;59898;52.786;6.892;2023-08-06T04:09:52;13.80;;;11.13;;
52668;SDS011;59898;52.786;6.892;2023-08-06T04:13:13;11.88;;;10.68;;
52668;SDS011;59898;52.786;6.892;2023-08-06T04:16:34;15.05;;;11.38;;
52668;SDS011;59898;52.786;6.892;2023-08-06T04:19:55;13.38;;;11.90;;
52668;SDS011;59898;52.786;6.892;2023-08-06T04:23:18;14.80;;;11.75;;
52668;SDS011;59898;52.786;6.892;2023-08-06T04:26:39;12.63;;;10.93;;
52668;SDS011;59898;52.786;6.892;2023-08-06T04:29:59;16.17;;;11.63;;
52668;SDS011;59898;52.786;6.892;2023-08-06T04:33:20;12.10;;;10.63;;
52668;SDS011;59898;52.786;6.892;2023-08-06T04:36:40;14.25;;;11.93;;
52668;SDS011;59898;52.786;6.892;2023-08-06T04:40:01;12.43;;;11.13;;
52668;SDS011;59898;52.786;6.892;2023-08-06T04:43:22;13.98;;;11.95;;
52668;SDS011;59898;52.786;6.892;2023-08-06T04:46:42;14.63;;;13.05;;
52668;SDS011;59898;52.786;6.892;2023-08-06T04:50:03;14.07;;;11.50;;
52668;SDS011;59898;52.786;6.892;2023-08-06T04:53:24;14.48;;;12.13;;
52668;SDS011;59898;52.786;6.892;2023-08-06T04:56:44;14.57;;;11.40;;
52668;SDS011;59898;52.786;6.892;2023-08-06T05:00:05;15.10;;;12.55;;
52668;SDS011;59898;52.786;6.892;2023-08-06T05:03:26;13.50;;;12.10;;
52668;SDS011;59898;52.786;6.892;2023-08-06T05:06:47;13.68;;;12.30;;
52668;SDS011;59898;52.786;6.892;2023-08-06T05:10:08;13.25;;;11.85;;
52668;SDS011;59898;52.786;6.892;2023-08-06T05:13:29;16.48;;;13.20;;
52668;SDS011;59898;52.786;6.892;2023-08-06T05:16:49;15.13;;;12.38;;
52668;SDS011;59898;52.786;6.892;2023-08-06T05:20:10;16.13;;;13.18;;
52668;SDS011;59898;52.786;6.892;2023-08-06T05:23:31;15.32;;;12.45;;
52668;SDS011;59898;52.786;6.892;2023-08-06T05:26:52;14.77;;;13.27;;
52668;SDS011;59898;52.786;6.892;2023-08-06T05:30:12;15.02;;;12.68;;
52668;SDS011;59898;52.786;6.892;2023-08-06T05:33:33;13.27;;;11.82;;
52668;SDS011;59898;52.786;6.892;2023-08-06T05:36:53;16.05;;;13.50;;
52668;SDS011;59898;52.786;6.892;2023-08-06T05:40:14;16.15;;;13.15;;
52668;SDS011;59898;52.786;6.892;2023-08-06T05:43:35;15.75;;;12.60;;
52668;SDS011;59898;52.786;6.892;2023-08-06T05:46:55;16.25;;;13.18;;
52668;SDS011;59898;52.786;6.892;2023-08-06T05:50:16;18.27;;;13.43;;
52668;SDS011;59898;52.786;6.892;2023-08-06T05:53:36;19.75;;;14.48;;
52668;SDS011;59898;52.786;6.892;2023-08-06T05:56:57;17.05;;;14.23;;
52668;SDS011;59898;52.786;6.892;2023-08-06T06:00:18;18.30;;;13.77;;
52668;SDS011;59898;52.786;6.892;2023-08-06T06:03:38;13.95;;;12.27;;
52668;SDS011;59898;52.786;6.892;2023-08-06T06:06:59;18.60;;;13.38;;
52668;SDS011;59898;52.786;6.892;2023-08-06T06:10:20;14.82;;;13.05;;
52668;SDS011;59898;52.786;6.892;2023-08-06T06:13:40;14.73;;;12.68;;
52668;SDS011;59898;52.786;6.892;2023-08-06T06:17:01;16.38;;;13.48;;
52668;SDS011;59898;52.786;6.892;2023-08-06T06:20:21;13.93;;;12.52;;
52668;SDS011;59898;52.786;6.892;2023-08-06T06:23:42;15.82;;;11.88;;
52668;SDS011;59898;52.786;6.892;2023-08-06T06:27:02;14.13;;;11.90;;
52668;SDS011;59898;52.786;6.892;2023-08-06T06:30:23;13.65;;;11.82;;
52668;SDS011;59898;52.786;6.892;2023-08-06T06:33:44;13.75;;;11.57;;
52668;SDS011;59898;52.786;6.892;2023-08-06T06:37:04;13.45;;;11.90;;
52668;SDS011;59898;52.786;6.892;2023-08-06T06:40:25;13.02;;;11.45;;
52668;SDS011;59898;52.786;6.892;2023-08-06T06:43:46;13.40;;;11.35;;
52668;SDS011;59898;52.786;6.892;2023-08-06T06:47:06;14.20;;;12.27;;
52668;SDS011;59898;52.786;6.892;2023-08-06T06:50:27;14.25;;;11.43;;
52668;SDS011;59898;52.786;6.892;2023-08-06T06:53:48;12.65;;;11.32;;
52668;SDS011;59898;52.786;6.892;2023-08-06T06:57:08;13.77;;;11.73;;
52668;SDS011;59898;52.786;6.892;2023-08-06T07:00:29;12.60;;;11.30;;
52668;SDS011;59898;52.786;6.892;2023-08-06T07:03:49;14.48;;;11.55;;
52668;SDS011;59898;52.786;6.892;2023-08-06T07:07:10;11.68;;;10.38;;
52668;SDS011;59898;52.786;6.892;2023-08-06T07:10:30;12.10;;;10.80;;
52668;SDS011;59898;52.786;6.892;2023-08-06T07:13:55;12.45;;;11.15;;
52668;SDS011;59898;52.786;6.892;2023-08-06T07:17:18;14.77;;;11.20;;
52668;SDS011;59898;52.786;6.892;2023-08-06T07:20:38;12.02;;;10.35;;
52668;SDS011;59898;52.786;6.892;2023-08-06T07:23:59;12.35;;;10.40;;
52668;SDS011;59898;52.786;6.892;2023-08-06T07:27:19;11.43;;;9.60;;
52668;SDS011;59898;52.786;6.892;2023-08-06T07:30:40;10.68;;;9.60;;
52668;SDS011;59898;52.786;6.892;2023-08-06T07:34:02;10.00;;;9.00;;
52668;SDS011;59898;52.786;6.892;2023-08-06T07:37:22;10.35;;;9.25;;
52668;SDS011;59898;52.786;6.892;2023-08-06T07:40:43;12.23;;;9.82;;
52668;SDS011;59898;52.786;6.892;2023-08-06T07:44:04;11.18;;;9.32;;
52668;SDS011;59898;52.786;6.892;2023-08-06T07:47:25;10.75;;;9.65;;
52668;SDS011;59898;52.786;6.892;2023-08-06T07:50:45;9.73;;;8.82;;
52668;SDS011;59898;52.786;6.892;2023-08-06T07:54:10;10.48;;;9.43;;
52668;SDS011;59898;52.786;6.892;2023-08-06T07:57:31;12.48;;;8.82;;
52668;SDS011;59898;52.786;6.892;2023-08-06T08:00:52;10.95;;;8.90;;
52668;SDS011;59898;52.786;6.892;2023-08-06T08:04:12;9.15;;;8.25;;
52668;SDS011;59898;52.786;6.892;2023-08-06T08:07:33;10.60;;;9.18;;
52668;SDS011;59898;52.786;6.892;2023-08-06T08:10:54;11.05;;;9.85;;
52668;SDS011;59898;52.786;6.892;2023-08-06T08:14:16;11.05;;;9.23;;
52668;SDS011;59898;52.786;6.892;2023-08-06T08:17:36;10.93;;;8.73;;
52668;SDS011;59898;52.786;6.892;2023-08-06T08:20:57;10.60;;;9.43;;
52668;SDS011;59898;52.786;6.892;2023-08-06T08:24:17;9.45;;;8.45;;
52668;SDS011;59898;52.786;6.892;2023-08-06T08:27:39;11.10;;;10.02;;
52668;SDS011;59898;52.786;6.892;2023-08-06T08:31:00;9.13;;;8.23;;
52668;SDS011;59898;52.786;6.892;2023-08-06T08:34:20;10.40;;;8.82;;
52668;SDS011;59898;52.786;6.892;2023-08-06T08:37:41;9.38;;;8.48;;
52668;SDS011;59898;52.786;6.892;2023-08-06T08:41:03;9.70;;;8.07;;
52668;SDS011;59898;52.786;6.892;2023-08-06T08:44:24;9.20;;;8.18;;
52668;SDS011;59898;52.786;6.892;2023-08-06T08:47:48;8.50;;;7.70;;
52668;SDS011;59898;52.786;6.892;2023-08-06T08:51:09;9.35;;;8.45;;
52668;SDS011;59898;52.786;6.892;2023-08-06T08:54:31;10.52;;;8.50;;
52668;SDS011;59898;52.786;6.892;2023-08-06T08:57:53;9.45;;;8.55;;
52668;SDS011;59898;52.786;6.892;2023-08-06T09:01:14;9.88;;;8.85;;
52668;SDS011;59898;52.786;6.892;2023-08-06T09:04:35;9.40;;;8.50;;
52668;SDS011;59898;52.786;6.892;2023-08-06T09:07:57;10.77;;;7.47;;
52668;SDS011;59898;52.786;6.892;2023-08-06T09:11:22;9.95;;;7.60;;
52668;SDS011;59898;52.786;6.892;2023-08-06T09:14:43;9.98;;;7.60;;
52668;SDS011;59898;52.786;6.892;2023-08-06T09:18:10;8.93;;;8.02;;
52668;SDS011;59898;52.786;6.892;2023-08-06T09:21:31;25.70;;;10.93;;
52668;SDS011;59898;52.786;6.892;2023-08-06T09:24:52;12.23;;;10.18;;
52668;SDS011;59898;52.786;6.892;2023-08-06T09:28:12;8.82;;;8.00;;
52668;SDS011;59898;52.786;6.892;2023-08-06T09:31:34;9.77;;;7.15;;
52668;SDS011;59898;52.786;6.892;2023-08-06T09:35:00;7.57;;;6.88;;
52668;SDS011;59898;52.786;6.892;2023-08-06T09:38:20;8.18;;;6.80;;
52668;SDS011;59898;52.786;6.892;2023-08-06T09:41:41;12.05;;;6.63;;
52668;SDS011;59898;52.786;6.892;2023-08-06T09:45:05;9.32;;;6.15;;
52668;SDS011;59898;52.786;6.892;2023-08-06T09:48:26;7.22;;;6.50;;
52668;SDS011;59898;52.786;6.892;2023-08-06T09:51:47;7.50;;;6.80;;
52668;SDS011;59898;52.786;6.892;2023-08-06T09:55:11;7.80;;;7.00;;
52668;SDS011;59898;52.786;6.892;2023-08-06T09:58:32;6.37;;;5.70;;
52668;SDS011;59898;52.786;6.892;2023-08-06T10:01:53;6.90;;;6.07;;
52668;SDS011;59898;52.786;6.892;2023-08-06T10:05:17;7.78;;;6.95;;
52668;SDS011;59898;52.786;6.892;2023-08-06T10:08:38;6.22;;;5.63;;
52668;SDS011;59898;52.786;6.892;2023-08-06T10:12:00;6.35;;;5.65;;
52668;SDS011;59898;52.786;6.892;2023-08-06T10:15:22;7.63;;;6.32;;
52668;SDS011;59898;52.786;6.892;2023-08-06T10:18:45;7.63;;;6.57;;
52668;SDS011;59898;52.786;6.892;2023-08-06T10:25:34;6.53;;;5.75;;
52668;SDS011;59898;52.786;6.892;2023-08-06T10:28:55;7.35;;;5.32;;
52668;SDS011;59898;52.786;6.892;2023-08-06T10:32:17;6.40;;;5.80;;
52668;SDS011;59898;52.786;6.892;2023-08-06T10:35:42;7.07;;;5.00;;
52668;SDS011;59898;52.786;6.892;2023-08-06T10:39:09;5.70;;;5.20;;
52668;SDS011;59898;52.786;6.892;2023-08-06T10:42:33;7.57;;;6.53;;
52668;SDS011;59898;52.786;6.892;2023-08-06T10:45:54;6.60;;;5.90;;
52668;SDS011;59898;52.786;6.892;2023-08-06T10:49:17;6.72;;;4.57;;
52668;SDS011;59898;52.786;6.892;2023-08-06T10:52:37;6.72;;;4.20;;
52668;SDS011;59898;52.786;6.892;2023-08-06T10:55:58;10.30;;;4.50;;
52668;SDS011;59898;52.786;6.892;2023-08-06T10:59:19;6.80;;;4.18;;
52668;SDS011;59898;52.786;6.892;2023-08-06T11:02:41;5.78;;;4.60;;
52668;SDS011;59898;52.786;6.892;2023-08-06T11:06:02;5.60;;;4.10;;
52668;SDS011;59898;52.786;6.892;2023-08-06T11:09:23;7.35;;;4.35;;
52668;SDS011;59898;52.786;6.892;2023-08-06T11:12:43;6.30;;;4.53;;
52668;SDS011;59898;52.786;6.892;2023-08-06T11:16:04;6.57;;;4.72;;
52668;SDS011;59898;52.786;6.892;2023-08-06T11:19:25;8.38;;;4.20;;
52668;SDS011;59898;52.786;6.892;2023-08-06T11:22:46;5.97;;;4.60;;
52668;SDS011;59898;52.786;6.892;2023-08-06T11:26:07;5.68;;;4.32;;
52668;SDS011;59898;52.786;6.892;2023-08-06T11:29:28;4.88;;;4.00;;
52668;SDS011;59898;52.786;6.892;2023-08-06T11:32:48;5.00;;;4.07;;
52668;SDS011;59898;52.786;6.892;2023-08-06T11:36:09;4.18;;;3.60;;
52668;SDS011;59898;52.786;6.892;2023-08-06T11:39:30;4.25;;;3.50;;
52668;SDS011;59898;52.786;6.892;2023-08-06T11:42:51;6.07;;;3.65;;
52668;SDS011;59898;52.786;6.892;2023-08-06T11:46:11;4.65;;;4.05;;
52668;SDS011;59898;52.786;6.892;2023-08-06T11:49:45;5.45;;;4.65;;
52668;SDS011;59898;52.786;6.892;2023-08-06T11:53:07;5.10;;;3.83;;
52668;SDS011;59898;52.786;6.892;2023-08-06T11:56:31;5.70;;;3.67;;
52668;SDS011;59898;52.786;6.892;2023-08-06T11:59:53;4.40;;;3.60;;
52668;SDS011;59898;52.786;6.892;2023-08-06T12:03:13;4.00;;;3.13;;
52668;SDS011;59898;52.786;6.892;2023-08-06T12:06:41;5.55;;;3.63;;
52668;SDS011;59898;52.786;6.892;2023-08-06T12:10:03;5.65;;;3.92;;
52668;SDS011;59898;52.786;6.892;2023-08-06T12:13:24;5.10;;;3.88;;
52668;SDS011;59898;52.786;6.892;2023-08-06T12:16:44;7.75;;;5.88;;
52668;SDS011;59898;52.786;6.892;2023-08-06T12:20:06;4.30;;;3.28;;
52668;SDS011;59898;52.786;6.892;2023-08-06T12:23:27;12.30;;;3.20;;
52668;SDS011;59898;52.786;6.892;2023-08-06T12:26:48;4.53;;;3.15;;
52668;SDS011;59898;52.786;6.892;2023-08-06T12:30:08;3.38;;;2.65;;
52668;SDS011;59898;52.786;6.892;2023-08-06T12:33:29;3.67;;;2.92;;
52668;SDS011;59898;52.786;6.892;2023-08-06T12:36:50;3.90;;;2.45;;
52668;SDS011;59898;52.786;6.892;2023-08-06T12:40:11;3.53;;;2.50;;
52668;SDS011;59898;52.786;6.892;2023-08-06T12:43:31;3.33;;;2.75;;
52668;SDS011;59898;52.786;6.892;2023-08-06T12:46:52;3.30;;;2.90;;
52668;SDS011;59898;52.786;6.892;2023-08-06T12:50:13;4.13;;;2.35;;
52668;SDS011;59898;52.786;6.892;2023-08-06T12:53:34;3.72;;;2.40;;
52668;SDS011;59898;52.786;6.892;2023-08-06T12:56:54;6.63;;;2.63;;
52668;SDS011;59898;52.786;6.892;2023-08-06T13:00:15;3.85;;;2.25;;
52668;SDS011;59898;52.786;6.892;2023-08-06T13:03:36;5.68;;;2.80;;
52668;SDS011;59898;52.786;6.892;2023-08-06T13:06:56;3.70;;;2.70;;
52668;SDS011;59898;52.786;6.892;2023-08-06T13:10:17;4.43;;;3.35;;
52668;SDS011;59898;52.786;6.892;2023-08-06T13:13:38;3.88;;;2.35;;
52668;SDS011;59898;52.786;6.892;2023-08-06T13:16:58;4.70;;;2.60;;
52668;SDS011;59898;52.786;6.892;2023-08-06T13:20:19;4.25;;;2.42;;
52668;SDS011;59898;52.786;6.892;2023-08-06T13:23:40;3.42;;;2.63;;
52668;SDS011;59898;52.786;6.892;2023-08-06T13:27:01;17.08;;;13.48;;
52668;SDS011;59898;52.786;6.892;2023-08-06T13:30:21;10.57;;;7.93;;
52668;SDS011;59898;52.786;6.892;2023-08-06T13:33:43;5.00;;;3.45;;
52668;SDS011;59898;52.786;6.892;2023-08-06T13:37:03;3.50;;;2.65;;
52668;SDS011;59898;52.786;6.892;2023-08-06T13:40:24;3.95;;;3.00;;
52668;SDS011;59898;52.786;6.892;2023-08-06T13:43:44;3.72;;;3.20;;
52668;SDS011;59898;52.786;6.892;2023-08-06T13:47:05;4.05;;;3.35;;
52668;SDS011;59898;52.786;6.892;2023-08-06T13:50:26;3.83;;;2.90;;
52668;SDS011;59898;52.786;6.892;2023-08-06T13:53:47;6.70;;;3.33;;
52668;SDS011;59898;52.786;6.892;2023-08-06T13:57:08;3.55;;;2.85;;
52668;SDS011;59898;52.786;6.892;2023-08-06T14:00:29;3.78;;;2.85;;
52668;SDS011;59898;52.786;6.892;2023-08-06T14:03:50;6.78;;;3.30;;
52668;SDS011;59898;52.786;6.892;2023-08-06T14:07:10;6.68;;;3.67;;
52668;SDS011;59898;52.786;6.892;2023-08-06T14:10:31;15.55;;;3.40;;
52668;SDS011;59898;52.786;6.892;2023-08-06T14:13:52;6.18;;;3.75;;
52668;SDS011;59898;52.786;6.892;2023-08-06T14:17:12;5.43;;;3.22;;
52668;SDS011;59898;52.786;6.892;2023-08-06T14:20:33;4.80;;;3.15;;
52668;SDS011;59898;52.786;6.892;2023-08-06T14:23:54;5.65;;;3.63;;
52668;SDS011;59898;52.786;6.892;2023-08-06T14:27:14;4.22;;;2.95;;
52668;SDS011;59898;52.786;6.892;2023-08-06T14:30:35;5.38;;;3.03;;
52668;SDS011;59898;52.786;6.892;2023-08-06T14:33:56;6.20;;;4.07;;
52668;SDS011;59898;52.786;6.892;2023-08-06T14:37:16;6.80;;;5.03;;
52668;SDS011;59898;52.786;6.892;2023-08-06T14:40:37;5.60;;;4.40;;
52668;SDS011;59898;52.786;6.892;2023-08-06T14:43:59;7.27;;;3.53;;
52668;SDS011;59898;52.786;6.892;2023-08-06T14:47:20;4.25;;;3.22;;
52668;SDS011;59898;52.786;6.892;2023-08-06T14:50:40;5.05;;;3.83;;
52668;SDS011;59898;52.786;6.892;2023-08-06T14:57:23;5.72;;;4.10;;
52668;SDS011;59898;52.786;6.892;2023-08-06T15:00:47;5.13;;;3.90;;
52668;SDS011;59898;52.786;6.892;2023-08-06T15:04:08;5.07;;;4.15;;
52668;SDS011;59898;52.786;6.892;2023-08-06T15:07:28;5.75;;;4.03;;
52668;SDS011;59898;52.786;6.892;2023-08-06T15:10:53;7.47;;;3.78;;
52668;SDS011;59898;52.786;6.892;2023-08-06T15:14:14;5.97;;;4.32;;
52668;SDS011;59898;52.786;6.892;2023-08-06T15:17:35;4.68;;;3.85;;
52668;SDS011;59898;52.786;6.892;2023-08-06T15:20:55;3.90;;;3.30;;
52668;SDS011;59898;52.786;6.892;2023-08-06T15:24:17;3.77;;;2.87;;
52668;SDS011;59898;52.786;6.892;2023-08-06T15:27:37;5.53;;;4.30;;
52668;SDS011;59898;52.786;6.892;2023-08-06T15:31:00;6.80;;;3.57;;
52668;SDS011;59898;52.786;6.892;2023-08-06T15:34:21;5.80;;;3.63;;
52668;SDS011;59898;52.786;6.892;2023-08-06T15:37:42;4.93;;;3.45;;
52668;SDS011;59898;52.786;6.892;2023-08-06T15:41:02;6.45;;;4.00;;
52668;SDS011;59898;52.786;6.892;2023-08-06T15:44:23;7.20;;;3.40;;
52668;SDS011;59898;52.786;6.892;2023-08-06T15:47:44;5.35;;;3.30;;
52668;SDS011;59898;52.786;6.892;2023-08-06T15:51:04;6.38;;;3.70;;
52668;SDS011;59898;52.786;6.892;2023-08-06T15:54:25;5.07;;;4.40;;
52668;SDS011;59898;52.786;6.892;2023-08-06T15:57:46;3.78;;;3.08;;
52668;SDS011;59898;52.786;6.892;2023-08-06T16:01:06;5.32;;;3.65;;
52668;SDS011;59898;52.786;6.892;2023-08-06T16:04:27;6.97;;;3.92;;
52668;SDS011;59898;52.786;6.892;2023-08-06T16:07:51;9.02;;;3.00;;
52668;SDS011;59898;52.786;6.892;2023-08-06T16:11:12;6.90;;;3.35;;
52668;SDS011;59898;52.786;6.892;2023-08-06T16:14:32;5.10;;;3.75;;
52668;SDS011;59898;52.786;6.892;2023-08-06T16:17:55;4.38;;;3.05;;
52668;SDS011;59898;52.786;6.892;2023-08-06T16:21:15;5.20;;;3.13;;
52668;SDS011;59898;52.786;6.892;2023-08-06T16:24:36;4.25;;;3.25;;
52668;SDS011;59898;52.786;6.892;2023-08-06T16:27:57;5.22;;;4.00;;
52668;SDS011;59898;52.786;6.892;2023-08-06T16:31:18;6.35;;;3.50;;
52668;SDS011;59898;52.786;6.892;2023-08-06T16:34:39;6.35;;;3.38;;
52668;SDS011;59898;52.786;6.892;2023-08-06T16:37:59;4.53;;;3.17;;
52668;SDS011;59898;52.786;6.892;2023-08-06T16:41:20;3.95;;;3.00;;
52668;SDS011;59898;52.786;6.892;2023-08-06T16:44:41;6.13;;;3.95;;
52668;SDS011;59898;52.786;6.892;2023-08-06T16:48:02;6.88;;;5.85;;
52668;SDS011;59898;52.786;6.892;2023-08-06T16:51:23;4.32;;;3.28;;
52668;SDS011;59898;52.786;6.892;2023-08-06T16:54:44;4.78;;;3.30;;
52668;SDS011;59898;52.786;6.892;2023-08-06T16:58:05;3.78;;;2.97;;
52668;SDS011;59898;52.786;6.892;2023-08-06T17:01:25;3.90;;;2.90;;
52668;SDS011;59898;52.786;6.892;2023-08-06T17:04:46;5.28;;;3.33;;
52668;SDS011;59898;52.786;6.892;2023-08-06T17:08:06;5.43;;;3.60;;
52668;SDS011;59898;52.786;6.892;2023-08-06T17:11:29;4.38;;;3.70;;
52668;SDS011;59898;52.786;6.892;2023-08-06T17:14:51;4.32;;;3.53;;
52668;SDS011;59898;52.786;6.892;2023-08-06T17:18:11;6.20;;;2.97;;
52668;SDS011;59898;52.786;6.892;2023-08-06T17:21:36;5.43;;;3.25;;
52668;SDS011;59898;52.786;6.892;2023-08-06T17:24:57;5.33;;;3.90;;
52668;SDS011;59898;52.786;6.892;2023-08-06T17:28:18;4.20;;;3.28;;
52668;SDS011;59898;52.786;6.892;2023-08-06T17:31:39;5.60;;;3.33;;
52668;SDS011;59898;52.786;6.892;2023-08-06T17:34:59;4.78;;;3.20;;
52668;SDS011;59898;52.786;6.892;2023-08-06T17:38:20;4.72;;;3.03;;
52668;SDS011;59898;52.786;6.892;2023-08-06T17:41:40;5.43;;;3.30;;
52668;SDS011;59898;52.786;6.892;2023-08-06T17:45:01;5.15;;;3.67;;
52668;SDS011;59898;52.786;6.892;2023-08-06T17:48:21;7.28;;;3.63;;
52668;SDS011;59898;52.786;6.892;2023-08-06T17:51:43;5.18;;;3.10;;
52668;SDS011;59898;52.786;6.892;2023-08-06T17:55:03;4.05;;;2.88;;
52668;SDS011;59898;52.786;6.892;2023-08-06T17:58:24;5.05;;;3.95;;
52668;SDS011;59898;52.786;6.892;2023-08-06T18:01:45;5.07;;;3.38;;
52668;SDS011;59898;52.786;6.892;2023-08-06T18:05:06;8.93;;;3.97;;
52668;SDS011;59898;52.786;6.892;2023-08-06T18:08:26;5.13;;;4.32;;
52668;SDS011;59898;52.786;6.892;2023-08-06T18:11:47;5.88;;;4.47;;
52668;SDS011;59898;52.786;6.892;2023-08-06T18:15:11;5.15;;;4.43;;
52668;SDS011;59898;52.786;6.892;2023-08-06T18:18:32;5.35;;;3.97;;
52668;SDS011;59898;52.786;6.892;2023-08-06T18:21:52;6.40;;;3.47;;
52668;SDS011;59898;52.786;6.892;2023-08-06T18:25:13;5.32;;;4.00;;
52668;SDS011;59898;52.786;6.892;2023-08-06T18:28:33;4.28;;;3.47;;
52668;SDS011;59898;52.786;6.892;2023-08-06T18:31:54;6.85;;;4.38;;
52668;SDS011;59898;52.786;6.892;2023-08-06T18:35:15;4.25;;;3.20;;
52668;SDS011;59898;52.786;6.892;2023-08-06T18:38:36;5.97;;;4.05;;
52668;SDS011;59898;52.786;6.892;2023-08-06T18:41:56;5.95;;;3.65;;
52668;SDS011;59898;52.786;6.892;2023-08-06T18:45:17;6.03;;;3.10;;
52668;SDS011;59898;52.786;6.892;2023-08-06T18:48:37;4.90;;;3.20;;
52668;SDS011;59898;52.786;6.892;2023-08-06T18:51:58;9.60;;;3.83;;
52668;SDS011;59898;52.786;6.892;2023-08-06T18:55:18;6.65;;;4.10;;
52668;SDS011;59898;52.786;6.892;2023-08-06T18:58:39;5.85;;;3.20;;
52668;SDS011;59898;52.786;6.892;2023-08-06T19:02:01;11.80;;;5.13;;
52668;SDS011;59898;52.786;6.892;2023-08-06T19:05:24;7.93;;;4.00;;
52668;SDS011;59898;52.786;6.892;2023-08-06T19:08:46;9.18;;;3.42;;
52668;SDS011;59898;52.786;6.892;2023-08-06T19:12:07;6.13;;;3.10;;
52668;SDS011;59898;52.786;6.892;2023-08-06T19:15:28;7.60;;;3.42;;
52668;SDS011;59898;52.786;6.892;2023-08-06T19:18:48;8.60;;;3.25;;
52668;SDS011;59898;52.786;6.892;2023-08-06T19:22:10;6.97;;;3.67;;
52668;SDS011;59898;52.786;6.892;2023-08-06T19:25:31;9.95;;;2.90;;
52668;SDS011;59898;52.786;6.892;2023-08-06T19:28:52;4.22;;;2.60;;
52668;SDS011;59898;52.786;6.892;2023-08-06T19:32:13;6.80;;;3.08;;
52668;SDS011;59898;52.786;6.892;2023-08-06T19:35:34;8.73;;;3.58;;
52668;SDS011;59898;52.786;6.892;2023-08-06T19:38:54;6.53;;;3.33;;
52668;SDS011;59898;52.786;6.892;2023-08-06T19:42:15;9.55;;;2.85;;
52668;SDS011;59898;52.786;6.892;2023-08-06T19:45:36;5.47;;;2.95;;
52668;SDS011;59898;52.786;6.892;2023-08-06T19:48:57;8.88;;;3.42;;
52668;SDS011;59898;52.786;6.892;2023-08-06T19:52:17;10.52;;;3.60;;
52668;SDS011;59898;52.786;6.892;2023-08-06T19:55:38;7.63;;;3.90;;
52668;SDS011;59898;52.786;6.892;2023-08-06T19:58:59;10.32;;;3.38;;
52668;SDS011;59898;52.786;6.892;2023-08-06T20:02:20;5.03;;;2.72;;
52668;SDS011;59898;52.786;6.892;2023-08-06T20:05:41;7.28;;;2.60;;
52668;SDS011;59898;52.786;6.892;2023-08-06T20:09:01;6.18;;;2.47;;
52668;SDS011;59898;52.786;6.892;2023-08-06T20:12:22;10.90;;;3.05;;
52668;SDS011;59898;52.786;6.892;2023-08-06T20:15:42;9.63;;;2.95;;
52668;SDS011;59898;52.786;6.892;2023-08-06T20:19:06;10.13;;;3.85;;